sensor_id;sensor_type;location;lat;lon;timestamp;pressure;altitude;pressure_sealevel;temperature;humidity
44992;BME280;56865;51.618;7.406;2022-10-16T00:02:20;100322.34;;;22.89;100.00
44992;BME280;56865;51.618;7.406;2022-10-16T00:04:51;100321.03;;;22.76;100.00
44992;BME280;56865;51.618;7.406;2022-10-16T00:07:21;100316.78;;;22.71;100.00
44992;BME280;56865;51.618;7.406;2022-10-16T00:09:52;100324.00;;;22.62;100.00
44992;BME280;56865;51.618;7.406;2022-10-16T00:12:24;100311.59;;;22.71;100.00
44992;BME280;56865;51.618;7.406;2022-10-16T00:14:58;100307.91;;;22.49;100.00
44992;BME280;56865;51.618;7.406;2022-10-16T00:17:30;100308.88;;;22.45;100.00
44992;BME280;56865;51.618;7.406;2022-10-16T00:20:00;100330.69;;;22.39;100.00
44992;BME280;56865;51.618;7.406;2022-10-16T00:22:31;100333.28;;;22.39;100.00
44992;BME280;56865;51.618;7.406;2022-10-16T00:25:03;100330.84;;;22.31;100.00
44992;BME280;56865;51.618;7.406;2022-10-16T00:27:34;100328.91;;;22.41;100.00
44992;BME280;56865;51.618;7.406;2022-10-16T00:30:08;100320.31;;;22.04;100.00
44992;BME280;56865;51.618;7.406;2022-10-16T00:32:39;100324.50;;;22.10;100.00
44992;BME280;56865;51.618;7.406;2022-10-16T00:35:10;100315.47;;;22.25;100.00
44992;BME280;56865;51.618;7.406;2022-10-16T00:37:40;100318.63;;;22.36;100.00
44992;BME280;56865;51.618;7.406;2022-10-16T00:40:11;100326.91;;;22.51;100.00
44992;BME280;56865;51.618;7.406;2022-10-16T00:42:44;100335.47;;;22.21;100.00
44992;BME280;56865;51.618;7.406;2022-10-16T00:45:17;100329.41;;;22.21;100.00
44992;BME280;56865;51.618;7.406;2022-10-16T00:47:47;100332.88;;;22.20;100.00
44992;BME280;56865;51.618;7.406;2022-10-16T00:50:24;100337.81;;;22.31;100.00
44992;BME280;56865;51.618;7.406;2022-10-16T00:52:56;100340.28;;;22.01;100.00
44992;BME280;56865;51.618;7.406;2022-10-16T00:55:27;100331.72;;;21.99;100.00
44992;BME280;56865;51.618;7.406;2022-10-16T00:57:58;100332.81;;;21.90;100.00
44992;BME280;56865;51.618;7.406;2022-10-16T01:00:35;100331.25;;;21.83;100.00
44992;BME280;56865;51.618;7.406;2022-10-16T01:03:21;100331.09;;;21.89;100.00
44992;BME280;56865;51.618;7.406;2022-10-16T01:05:54;100331.00;;;21.92;100.00
44992;BME280;56865;51.618;7.406;2022-10-16T01:08:31;100330.69;;;22.04;100.00
44992;BME280;56865;51.618;7.406;2022-10-16T01:11:07;100327.94;;;22.11;100.00
44992;BME280;56865;51.618;7.406;2022-10-16T01:13:44;100330.22;;;22.23;100.00
44992;BME280;56865;51.618;7.406;2022-10-16T01:16:23;100331.84;;;22.27;100.00
44992;BME280;56865;51.618;7.406;2022-10-16T01:18:54;100337.03;;;22.27;100.00
44992;BME280;56865;51.618;7.406;2022-10-16T01:21:30;100345.47;;;22.35;100.00
44992;BME280;56865;51.618;7.406;2022-10-16T01:24:06;100343.41;;;22.48;100.00
44992;BME280;56865;51.618;7.406;2022-10-16T01:26:49;100346.19;;;22.42;100.00
44992;BME280;56865;51.618;7.406;2022-10-16T01:29:26;100348.91;;;22.37;100.00
44992;BME280;56865;51.618;7.406;2022-10-16T01:32:06;100339.72;;;22.24;100.00
44992;BME280;56865;51.618;7.406;2022-10-16T01:34:40;100342.06;;;22.33;100.00
44992;BME280;56865;51.618;7.406;2022-10-16T01:37:15;100344.25;;;22.16;100.00
44992;BME280;56865;51.618;7.406;2022-10-16T01:39:51;100345.56;;;21.98;100.00
44992;BME280;56865;51.618;7.406;2022-10-16T01:42:27;100335.50;;;21.48;100.00
44992;BME280;56865;51.618;7.406;2022-10-16T01:45:17;100326.34;;;21.33;100.00
44992;BME280;56865;51.618;7.406;2022-10-16T01:47:50;100325.59;;;21.27;100.00
44992;BME280;56865;51.618;7.406;2022-10-16T01:50:23;100327.47;;;21.21;100.00
44992;BME280;56865;51.618;7.406;2022-10-16T01:52:54;100318.47;;;21.37;100.00
44992;BME280;56865;51.618;7.406;2022-10-16T01:55:28;100323.06;;;21.24;100.00
44992;BME280;56865;51.618;7.406;2022-10-16T01:58:02;100319.88;;;21.13;100.00
44992;BME280;56865;51.618;7.406;2022-10-16T02:00:41;100322.38;;;21.16;100.00
44992;BME280;56865;51.618;7.406;2022-10-16T02:03:20;100323.53;;;21.04;100.00
44992;BME280;56865;51.618;7.406;2022-10-16T02:09:03;100325.81;;;21.92;100.00
44992;BME280;56865;51.618;7.406;2022-10-16T02:11:34;100328.97;;;22.03;100.00
44992;BME280;56865;51.618;7.406;2022-10-16T02:17:28;100330.84;;;21.64;100.00
44992;BME280;56865;51.618;7.406;2022-10-16T02:19:59;100331.56;;;22.05;100.00
44992;BME280;56865;51.618;7.406;2022-10-16T02:22:32;100336.41;;;22.17;100.00
44992;BME280;56865;51.618;7.406;2022-10-16T02:25:06;100341.19;;;22.00;100.00
44992;BME280;56865;51.618;7.406;2022-10-16T02:30:41;100354.28;;;22.30;100.00
44992;BME280;56865;51.618;7.406;2022-10-16T02:33:32;100357.63;;;22.33;100.00
44992;BME280;56865;51.618;7.406;2022-10-16T02:36:03;100349.41;;;21.83;100.00
44992;BME280;56865;51.618;7.406;2022-10-16T02:38:36;100347.41;;;22.27;100.00
44992;BME280;56865;51.618;7.406;2022-10-16T02:41:06;100352.50;;;22.32;100.00
44992;BME280;56865;51.618;7.406;2022-10-16T02:43:43;100349.78;;;22.36;100.00
44992;BME280;56865;51.618;7.406;2022-10-16T02:46:16;100347.66;;;22.18;100.00
44992;BME280;56865;51.618;7.406;2022-10-16T02:48:49;100353.84;;;22.47;100.00
44992;BME280;56865;51.618;7.406;2022-10-16T02:51:22;100345.19;;;22.48;100.00
44992;BME280;56865;51.618;7.406;2022-10-16T02:53:54;100357.63;;;22.66;100.00
44992;BME280;56865;51.618;7.406;2022-10-16T02:56:24;100355.13;;;22.63;100.00
44992;BME280;56865;51.618;7.406;2022-10-16T02:58:57;100347.63;;;22.19;100.00
44992;BME280;56865;51.618;7.406;2022-10-16T03:01:28;100342.06;;;22.33;100.00
44992;BME280;56865;51.618;7.406;2022-10-16T03:04:00;100353.72;;;21.82;100.00
44992;BME280;56865;51.618;7.406;2022-10-16T03:06:30;100350.22;;;21.85;100.00
44992;BME280;56865;51.618;7.406;2022-10-16T03:09:10;100340.50;;;21.93;100.00
44992;BME280;56865;51.618;7.406;2022-10-16T03:11:40;100339.19;;;21.77;100.00
44992;BME280;56865;51.618;7.406;2022-10-16T03:14:10;100343.47;;;22.47;100.00
44992;BME280;56865;51.618;7.406;2022-10-16T03:16:40;100357.63;;;22.68;100.00
44992;BME280;56865;51.618;7.406;2022-10-16T03:19:12;100350.19;;;21.86;100.00
44992;BME280;56865;51.618;7.406;2022-10-16T03:21:44;100358.00;;;21.85;100.00
44992;BME280;56865;51.618;7.406;2022-10-16T03:24:19;100360.97;;;21.69;100.00
44992;BME280;56865;51.618;7.406;2022-10-16T03:26:48;100359.25;;;21.29;100.00
44992;BME280;56865;51.618;7.406;2022-10-16T03:29:21;100358.59;;;21.60;100.00
44992;BME280;56865;51.618;7.406;2022-10-16T03:31:52;100353.69;;;21.46;100.00
44992;BME280;56865;51.618;7.406;2022-10-16T03:34:29;100346.63;;;21.53;100.00
44992;BME280;56865;51.618;7.406;2022-10-16T03:36:59;100343.81;;;21.62;100.00
44992;BME280;56865;51.618;7.406;2022-10-16T03:39:29;100342.16;;;21.59;100.00
44992;BME280;56865;51.618;7.406;2022-10-16T03:41:58;100345.59;;;21.22;100.00
44992;BME280;56865;51.618;7.406;2022-10-16T03:44:28;100346.28;;;21.29;100.00
44992;BME280;56865;51.618;7.406;2022-10-16T03:46:57;100348.03;;;21.68;100.00
44992;BME280;56865;51.618;7.406;2022-10-16T03:49:29;100337.41;;;21.39;100.00
44992;BME280;56865;51.618;7.406;2022-10-16T03:51:59;100341.38;;;21.54;100.00
44992;BME280;56865;51.618;7.406;2022-10-16T03:54:29;100342.22;;;21.58;100.00
44992;BME280;56865;51.618;7.406;2022-10-16T03:56:59;100345.00;;;21.49;100.00
44992;BME280;56865;51.618;7.406;2022-10-16T03:59:31;100342.63;;;21.38;100.00
44992;BME280;56865;51.618;7.406;2022-10-16T04:02:03;100347.09;;;21.70;100.00
44992;BME280;56865;51.618;7.406;2022-10-16T04:04:38;100350.25;;;22.18;100.00
44992;BME280;56865;51.618;7.406;2022-10-16T04:07:08;100361.34;;;21.90;100.00
44992;BME280;56865;51.618;7.406;2022-10-16T04:09:39;100360.91;;;21.72;100.00
44992;BME280;56865;51.618;7.406;2022-10-16T04:12:10;100361.09;;;21.63;100.00
44992;BME280;56865;51.618;7.406;2022-10-16T04:14:43;100363.84;;;21.57;100.00
44992;BME280;56865;51.618;7.406;2022-10-16T04:17:14;100374.13;;;21.98;100.00
44992;BME280;56865;51.618;7.406;2022-10-16T04:19:46;100371.53;;;21.98;100.00
44992;BME280;56865;51.618;7.406;2022-10-16T04:22:16;100372.63;;;21.89;100.00
44992;BME280;56865;51.618;7.406;2022-10-16T04:24:49;100374.78;;;22.06;100.00
44992;BME280;56865;51.618;7.406;2022-10-16T04:27:19;100386.66;;;22.15;100.00
44992;BME280;56865;51.618;7.406;2022-10-16T04:29:51;100388.34;;;22.17;100.00
44992;BME280;56865;51.618;7.406;2022-10-16T04:32:22;100391.03;;;22.14;100.00
44992;BME280;56865;51.618;7.406;2022-10-16T04:34:55;100386.75;;;22.12;100.00
44992;BME280;56865;51.618;7.406;2022-10-16T04:37:27;100395.97;;;22.23;100.00
44992;BME280;56865;51.618;7.406;2022-10-16T04:39:58;100396.28;;;22.11;100.00
44992;BME280;56865;51.618;7.406;2022-10-16T04:42:30;100392.44;;;21.13;100.00
44992;BME280;56865;51.618;7.406;2022-10-16T04:45:03;100399.00;;;21.70;100.00
44992;BME280;56865;51.618;7.406;2022-10-16T04:47:37;100405.47;;;21.88;100.00
44992;BME280;56865;51.618;7.406;2022-10-16T04:50:12;100401.06;;;21.92;100.00
44992;BME280;56865;51.618;7.406;2022-10-16T04:52:47;100411.44;;;21.92;100.00
44992;BME280;56865;51.618;7.406;2022-10-16T04:58:18;100419.78;;;21.69;100.00
44992;BME280;56865;51.618;7.406;2022-10-16T05:00:51;100418.44;;;21.90;100.00
44992;BME280;56865;51.618;7.406;2022-10-16T05:06:27;100413.50;;;21.79;100.00
44992;BME280;56865;51.618;7.406;2022-10-16T05:08:58;100424.06;;;21.71;100.00
44992;BME280;56865;51.618;7.406;2022-10-16T05:11:28;100414.19;;;21.87;100.00
44992;BME280;56865;51.618;7.406;2022-10-16T05:13:57;100412.13;;;22.00;100.00
44992;BME280;56865;51.618;7.406;2022-10-16T05:16:28;100419.03;;;22.01;100.00
44992;BME280;56865;51.618;7.406;2022-10-16T05:18:58;100425.53;;;21.82;100.00
44992;BME280;56865;51.618;7.406;2022-10-16T05:21:51;100434.22;;;21.81;100.00
44992;BME280;56865;51.618;7.406;2022-10-16T05:24:25;100442.25;;;21.68;100.00
44992;BME280;56865;51.618;7.406;2022-10-16T05:26:55;100435.19;;;21.34;100.00
44992;BME280;56865;51.618;7.406;2022-10-16T05:29:45;100444.72;;;21.76;100.00
44992;BME280;56865;51.618;7.406;2022-10-16T05:32:18;100448.16;;;21.34;100.00
44992;BME280;56865;51.618;7.406;2022-10-16T05:40:32;100449.72;;;21.84;100.00
44992;BME280;56865;51.618;7.406;2022-10-16T05:43:01;100458.22;;;21.90;100.00
44992;BME280;56865;51.618;7.406;2022-10-16T05:45:34;100451.56;;;21.79;100.00
44992;BME280;56865;51.618;7.406;2022-10-16T05:48:03;100453.47;;;21.70;100.00
44992;BME280;56865;51.618;7.406;2022-10-16T05:50:51;100457.38;;;21.88;100.00
44992;BME280;56865;51.618;7.406;2022-10-16T05:56:27;100465.31;;;21.82;100.00
44992;BME280;56865;51.618;7.406;2022-10-16T05:58:58;100469.06;;;21.69;100.00
44992;BME280;56865;51.618;7.406;2022-10-16T06:04:27;100471.22;;;21.89;100.00
44992;BME280;56865;51.618;7.406;2022-10-16T06:06:58;100471.03;;;21.97;100.00
44992;BME280;56865;51.618;7.406;2022-10-16T06:09:29;100482.44;;;21.89;100.00
44992;BME280;56865;51.618;7.406;2022-10-16T06:12:20;100495.59;;;21.82;100.00
44992;BME280;56865;51.618;7.406;2022-10-16T06:14:50;100489.25;;;21.56;100.00
44992;BME280;56865;51.618;7.406;2022-10-16T06:17:22;100498.16;;;21.83;100.00
44992;BME280;56865;51.618;7.406;2022-10-16T06:19:54;100504.00;;;21.93;100.00
44992;BME280;56865;51.618;7.406;2022-10-16T06:22:26;100499.34;;;21.68;100.00
44992;BME280;56865;51.618;7.406;2022-10-16T06:24:56;100510.81;;;21.97;100.00
44992;BME280;56865;51.618;7.406;2022-10-16T06:27:28;100517.19;;;21.82;100.00
44992;BME280;56865;51.618;7.406;2022-10-16T06:30:00;100517.94;;;21.89;100.00
44992;BME280;56865;51.618;7.406;2022-10-16T06:32:34;100517.50;;;21.68;100.00
44992;BME280;56865;51.618;7.406;2022-10-16T06:35:07;100511.63;;;21.60;100.00
44992;BME280;56865;51.618;7.406;2022-10-16T06:40:53;100528.63;;;21.73;100.00
44992;BME280;56865;51.618;7.406;2022-10-16T06:43:25;100523.47;;;22.11;100.00
44992;BME280;56865;51.618;7.406;2022-10-16T06:45:58;100529.50;;;21.74;100.00
44992;BME280;56865;51.618;7.406;2022-10-16T06:48:29;100534.09;;;22.02;100.00
44992;BME280;56865;51.618;7.406;2022-10-16T06:50:59;100538.81;;;21.83;100.00
44992;BME280;56865;51.618;7.406;2022-10-16T06:53:32;100545.16;;;21.69;100.00
44992;BME280;56865;51.618;7.406;2022-10-16T06:59:07;100551.50;;;21.97;100.00
44992;BME280;56865;51.618;7.406;2022-10-16T07:04:50;100569.28;;;22.14;100.00
44992;BME280;56865;51.618;7.406;2022-10-16T07:07:26;100571.34;;;21.99;100.00
44992;BME280;56865;51.618;7.406;2022-10-16T07:09:56;100572.53;;;21.84;100.00
44992;BME280;56865;51.618;7.406;2022-10-16T07:12:25;100581.38;;;22.15;100.00
44992;BME280;56865;51.618;7.406;2022-10-16T07:14:59;100587.53;;;22.11;100.00
44992;BME280;56865;51.618;7.406;2022-10-16T07:17:33;100590.47;;;21.95;100.00
44992;BME280;56865;51.618;7.406;2022-10-16T07:20:03;100592.78;;;22.09;100.00
44992;BME280;56865;51.618;7.406;2022-10-16T07:22:32;100600.09;;;21.90;100.00
44992;BME280;56865;51.618;7.406;2022-10-16T07:28:04;100611.72;;;22.13;100.00
44992;BME280;56865;51.618;7.406;2022-10-16T07:30:37;100609.94;;;21.74;100.00
44992;BME280;56865;51.618;7.406;2022-10-16T07:33:07;100621.50;;;22.01;100.00
44992;BME280;56865;51.618;7.406;2022-10-16T07:35:47;100618.81;;;22.04;100.00
44992;BME280;56865;51.618;7.406;2022-10-16T07:38:16;100622.53;;;21.91;100.00
44992;BME280;56865;51.618;7.406;2022-10-16T07:40:46;100626.31;;;22.18;100.00
44992;BME280;56865;51.618;7.406;2022-10-16T07:43:16;100627.19;;;22.19;100.00
44992;BME280;56865;51.618;7.406;2022-10-16T07:45:52;100624.63;;;22.16;100.00
44992;BME280;56865;51.618;7.406;2022-10-16T07:48:28;100625.66;;;22.49;100.00
44992;BME280;56865;51.618;7.406;2022-10-16T07:50:58;100626.47;;;22.51;100.00
44992;BME280;56865;51.618;7.406;2022-10-16T07:53:29;100638.72;;;22.46;100.00
44992;BME280;56865;51.618;7.406;2022-10-16T07:55:59;100645.34;;;22.60;100.00
44992;BME280;56865;51.618;7.406;2022-10-16T07:58:28;100641.41;;;22.81;100.00
44992;BME280;56865;51.618;7.406;2022-10-16T08:01:02;100651.56;;;22.90;100.00
44992;BME280;56865;51.618;7.406;2022-10-16T08:03:32;100658.09;;;23.07;100.00
44992;BME280;56865;51.618;7.406;2022-10-16T08:06:02;100664.59;;;22.88;100.00
44992;BME280;56865;51.618;7.406;2022-10-16T08:08:32;100667.72;;;22.67;100.00
44992;BME280;56865;51.618;7.406;2022-10-16T08:11:02;100675.97;;;23.20;100.00
44992;BME280;56865;51.618;7.406;2022-10-16T08:13:32;100676.00;;;23.19;100.00
44992;BME280;56865;51.618;7.406;2022-10-16T08:16:04;100682.47;;;23.39;100.00
44992;BME280;56865;51.618;7.406;2022-10-16T08:18:34;100681.38;;;23.47;100.00
44992;BME280;56865;51.618;7.406;2022-10-16T08:21:06;100685.69;;;23.48;100.00
44992;BME280;56865;51.618;7.406;2022-10-16T08:23:37;100684.41;;;23.30;100.00
44992;BME280;56865;51.618;7.406;2022-10-16T08:26:06;100695.31;;;23.45;100.00
44992;BME280;56865;51.618;7.406;2022-10-16T08:28:36;100696.03;;;23.83;100.00
44992;BME280;56865;51.618;7.406;2022-10-16T08:31:10;100703.63;;;23.92;100.00
44992;BME280;56865;51.618;7.406;2022-10-16T08:33:40;100710.19;;;24.06;100.00
44992;BME280;56865;51.618;7.406;2022-10-16T08:36:11;100709.19;;;24.11;100.00
44992;BME280;56865;51.618;7.406;2022-10-16T08:38:42;100705.66;;;24.12;100.00
44992;BME280;56865;51.618;7.406;2022-10-16T08:41:21;100713.22;;;24.52;100.00
44992;BME280;56865;51.618;7.406;2022-10-16T08:46:45;100717.25;;;25.19;100.00
44992;BME280;56865;51.618;7.406;2022-10-16T08:49:19;100727.88;;;25.12;97.69
44992;BME280;56865;51.618;7.406;2022-10-16T08:51:50;100722.84;;;25.06;95.88
44992;BME280;56865;51.618;7.406;2022-10-16T08:54:23;100732.41;;;25.61;95.09
44992;BME280;56865;51.618;7.406;2022-10-16T08:56:55;100739.34;;;25.60;93.46
44992;BME280;56865;51.618;7.406;2022-10-16T08:59:28;100741.56;;;25.73;92.59
44992;BME280;56865;51.618;7.406;2022-10-16T09:02:00;100748.75;;;25.91;91.85
44992;BME280;56865;51.618;7.406;2022-10-16T09:07:23;100764.66;;;25.58;90.25
44992;BME280;56865;51.618;7.406;2022-10-16T09:10:00;100758.91;;;25.99;87.29
44992;BME280;56865;51.618;7.406;2022-10-16T09:12:34;100764.06;;;26.50;86.30
44992;BME280;56865;51.618;7.406;2022-10-16T09:15:10;100766.38;;;26.81;86.26
44992;BME280;56865;51.618;7.406;2022-10-16T09:17:48;100772.84;;;26.95;84.80
44992;BME280;56865;51.618;7.406;2022-10-16T09:20:22;100765.66;;;26.54;81.40
44992;BME280;56865;51.618;7.406;2022-10-16T09:22:55;100770.88;;;26.54;82.70
44992;BME280;56865;51.618;7.406;2022-10-16T09:25:29;100773.28;;;27.06;82.67
44992;BME280;56865;51.618;7.406;2022-10-16T09:27:59;100783.75;;;27.06;81.54
44992;BME280;56865;51.618;7.406;2022-10-16T09:30:29;100779.25;;;27.09;79.72
44992;BME280;56865;51.618;7.406;2022-10-16T09:33:01;100788.66;;;26.91;80.83
44992;BME280;56865;51.618;7.406;2022-10-16T09:35:31;100783.41;;;27.36;79.91
44992;BME280;56865;51.618;7.406;2022-10-16T09:38:03;100787.63;;;27.18;78.47
44992;BME280;56865;51.618;7.406;2022-10-16T09:40:33;100789.75;;;27.52;78.63
44992;BME280;56865;51.618;7.406;2022-10-16T09:43:07;100799.31;;;27.74;77.39
44992;BME280;56865;51.618;7.406;2022-10-16T09:45:42;100784.22;;;28.20;78.19
44992;BME280;56865;51.618;7.406;2022-10-16T09:48:17;100793.56;;;28.07;74.50
44992;BME280;56865;51.618;7.406;2022-10-16T09:50:55;100790.13;;;28.26;75.13
44992;BME280;56865;51.618;7.406;2022-10-16T09:53:25;100794.78;;;27.98;73.57
44992;BME280;56865;51.618;7.406;2022-10-16T09:55:55;100795.25;;;28.48;77.50
44992;BME280;56865;51.618;7.406;2022-10-16T09:58:25;100798.25;;;27.99;73.45
44992;BME280;56865;51.618;7.406;2022-10-16T10:00:54;100799.41;;;28.33;73.31
44992;BME280;56865;51.618;7.406;2022-10-16T10:03:33;100799.91;;;28.01;73.26
44992;BME280;56865;51.618;7.406;2022-10-16T10:06:05;100800.25;;;28.73;72.88
44992;BME280;56865;51.618;7.406;2022-10-16T10:08:35;100809.38;;;28.83;71.52
44992;BME280;56865;51.618;7.406;2022-10-16T10:11:05;100800.88;;;28.78;72.32
44992;BME280;56865;51.618;7.406;2022-10-16T10:13:40;100807.22;;;28.53;70.56
44992;BME280;56865;51.618;7.406;2022-10-16T10:16:10;100802.56;;;28.79;74.10
44992;BME280;56865;51.618;7.406;2022-10-16T10:18:42;100800.59;;;28.84;70.69
44992;BME280;56865;51.618;7.406;2022-10-16T10:21:12;100811.50;;;29.12;68.62
44992;BME280;56865;51.618;7.406;2022-10-16T10:23:44;100819.59;;;28.70;70.29
44992;BME280;56865;51.618;7.406;2022-10-16T10:26:24;100809.16;;;28.69;70.46
44992;BME280;56865;51.618;7.406;2022-10-16T10:28:57;100812.97;;;29.00;71.10
44992;BME280;56865;51.618;7.406;2022-10-16T10:31:32;100810.59;;;29.13;71.13
44992;BME280;56865;51.618;7.406;2022-10-16T10:34:11;100815.38;;;28.66;69.39
44992;BME280;56865;51.618;7.406;2022-10-16T10:36:48;100821.25;;;29.10;67.55
44992;BME280;56865;51.618;7.406;2022-10-16T10:39:22;100819.25;;;29.87;66.60
44992;BME280;56865;51.618;7.406;2022-10-16T10:42:01;100823.13;;;30.48;66.84
44992;BME280;56865;51.618;7.406;2022-10-16T10:44:44;100817.22;;;30.43;65.42
44992;BME280;56865;51.618;7.406;2022-10-16T10:47:21;100827.38;;;30.83;60.79
44992;BME280;56865;51.618;7.406;2022-10-16T10:50:01;100822.50;;;31.39;60.29
44992;BME280;56865;51.618;7.406;2022-10-16T10:52:34;100820.91;;;29.89;60.38
44992;BME280;56865;51.618;7.406;2022-10-16T10:55:09;100813.31;;;29.65;61.60
44992;BME280;56865;51.618;7.406;2022-10-16T10:57:41;100827.66;;;29.58;63.08
44992;BME280;56865;51.618;7.406;2022-10-16T11:00:19;100824.66;;;29.31;64.24
44992;BME280;56865;51.618;7.406;2022-10-16T11:02:52;100819.56;;;29.09;64.84
44992;BME280;56865;51.618;7.406;2022-10-16T11:05:33;100819.97;;;29.18;66.54
44992;BME280;56865;51.618;7.406;2022-10-16T11:08:07;100817.47;;;29.15;64.51
44992;BME280;56865;51.618;7.406;2022-10-16T11:10:42;100824.47;;;28.78;65.06
44992;BME280;56865;51.618;7.406;2022-10-16T11:13:16;100823.91;;;28.91;66.86
44992;BME280;56865;51.618;7.406;2022-10-16T11:15:47;100822.88;;;29.12;64.99
44992;BME280;56865;51.618;7.406;2022-10-16T11:18:19;100834.59;;;28.48;67.10
44992;BME280;56865;51.618;7.406;2022-10-16T11:20:53;100826.72;;;29.05;68.63
44992;BME280;56865;51.618;7.406;2022-10-16T11:23:23;100827.66;;;29.58;64.71
44992;BME280;56865;51.618;7.406;2022-10-16T11:25:55;100827.28;;;29.83;64.74
44992;BME280;56865;51.618;7.406;2022-10-16T11:28:27;100830.50;;;28.80;66.78
44992;BME280;56865;51.618;7.406;2022-10-16T11:31:00;100835.78;;;28.98;65.66
44992;BME280;56865;51.618;7.406;2022-10-16T11:33:32;100828.28;;;29.63;64.62
44992;BME280;56865;51.618;7.406;2022-10-16T11:36:11;100830.75;;;30.53;65.83
44992;BME280;56865;51.618;7.406;2022-10-16T11:38:48;100832.63;;;30.51;63.93
44992;BME280;56865;51.618;7.406;2022-10-16T11:41:22;100843.13;;;31.47;63.75
44992;BME280;56865;51.618;7.406;2022-10-16T11:43:57;100842.44;;;30.13;65.73
44992;BME280;56865;51.618;7.406;2022-10-16T11:46:27;100839.09;;;29.75;67.86
44992;BME280;56865;51.618;7.406;2022-10-16T11:49:00;100842.50;;;29.77;63.98
44992;BME280;56865;51.618;7.406;2022-10-16T11:51:36;100835.66;;;29.92;64.62
44992;BME280;56865;51.618;7.406;2022-10-16T11:54:09;100830.69;;;29.68;67.15
44992;BME280;56865;51.618;7.406;2022-10-16T11:56:44;100836.78;;;29.33;68.95
44992;BME280;56865;51.618;7.406;2022-10-16T11:59:16;100835.47;;;28.07;68.53
44992;BME280;56865;51.618;7.406;2022-10-16T12:01:50;100842.81;;;28.19;71.52
44992;BME280;56865;51.618;7.406;2022-10-16T12:04:22;100840.84;;;28.64;68.61
44992;BME280;56865;51.618;7.406;2022-10-16T12:07:02;100847.63;;;28.49;67.16
44992;BME280;56865;51.618;7.406;2022-10-16T12:09:34;100843.50;;;29.20;67.65
44992;BME280;56865;51.618;7.406;2022-10-16T12:14:59;100850.09;;;28.73;67.98
44992;BME280;56865;51.618;7.406;2022-10-16T12:17:43;100856.31;;;28.31;69.98
44992;BME280;56865;51.618;7.406;2022-10-16T12:20:20;100848.69;;;28.64;69.81
44992;BME280;56865;51.618;7.406;2022-10-16T12:22:55;100849.16;;;28.34;72.48
44992;BME280;56865;51.618;7.406;2022-10-16T12:25:26;100854.28;;;28.17;69.87
44992;BME280;56865;51.618;7.406;2022-10-16T12:27:58;100851.25;;;28.47;70.85
44992;BME280;56865;51.618;7.406;2022-10-16T12:30:29;100857.38;;;28.27;68.69
44992;BME280;56865;51.618;7.406;2022-10-16T12:33:01;100854.22;;;27.98;70.52
44992;BME280;56865;51.618;7.406;2022-10-16T12:35:32;100850.47;;;27.83;74.12
44992;BME280;56865;51.618;7.406;2022-10-16T12:38:12;100851.69;;;27.95;73.77
44992;BME280;56865;51.618;7.406;2022-10-16T12:40:44;100856.69;;;28.01;72.86
44992;BME280;56865;51.618;7.406;2022-10-16T12:43:25;100858.00;;;28.32;69.57
44992;BME280;56865;51.618;7.406;2022-10-16T12:45:59;100857.78;;;28.95;67.73
44992;BME280;56865;51.618;7.406;2022-10-16T12:48:29;100863.34;;;29.26;69.29
44992;BME280;56865;51.618;7.406;2022-10-16T12:51:21;100868.28;;;29.33;68.83
44992;BME280;56865;51.618;7.406;2022-10-16T12:54:03;100871.69;;;29.35;72.32
44992;BME280;56865;51.618;7.406;2022-10-16T12:56:39;100864.59;;;29.18;67.05
44992;BME280;56865;51.618;7.406;2022-10-16T12:59:14;100866.66;;;29.31;72.12
44992;BME280;56865;51.618;7.406;2022-10-16T13:01:55;100869.94;;;29.17;68.79
44992;BME280;56865;51.618;7.406;2022-10-16T13:04:41;100869.22;;;28.94;67.06
44992;BME280;56865;51.618;7.406;2022-10-16T13:07:21;100859.97;;;28.66;73.50
44992;BME280;56865;51.618;7.406;2022-10-16T13:10:00;100860.94;;;28.84;74.73
44992;BME280;56865;51.618;7.406;2022-10-16T13:12:42;100866.09;;;28.46;72.59
44992;BME280;56865;51.618;7.406;2022-10-16T13:18:05;100861.88;;;28.63;68.88
44992;BME280;56865;51.618;7.406;2022-10-16T13:20:44;100873.97;;;28.67;70.45
44992;BME280;56865;51.618;7.406;2022-10-16T13:23:19;100869.59;;;29.23;66.19
44992;BME280;56865;51.618;7.406;2022-10-16T13:25:58;100868.53;;;28.91;64.82
44992;BME280;56865;51.618;7.406;2022-10-16T13:28:30;100862.84;;;29.00;68.29
44992;BME280;56865;51.618;7.406;2022-10-16T13:31:01;100871.03;;;30.20;62.95
44992;BME280;56865;51.618;7.406;2022-10-16T13:33:32;100873.53;;;30.23;64.93
44992;BME280;56865;51.618;7.406;2022-10-16T13:36:05;100876.53;;;29.80;66.76
44992;BME280;56865;51.618;7.406;2022-10-16T13:38:36;100872.56;;;29.54;68.85
44992;BME280;56865;51.618;7.406;2022-10-16T13:41:13;100872.59;;;29.71;73.48
44992;BME280;56865;51.618;7.406;2022-10-16T13:43:44;100874.03;;;29.03;69.40
44992;BME280;56865;51.618;7.406;2022-10-16T13:46:15;100879.44;;;28.81;73.33
44992;BME280;56865;51.618;7.406;2022-10-16T13:48:55;100879.22;;;28.46;66.46
44992;BME280;56865;51.618;7.406;2022-10-16T13:51:25;100891.56;;;28.03;67.24
44992;BME280;56865;51.618;7.406;2022-10-16T13:53:56;100884.16;;;28.33;66.08
44992;BME280;56865;51.618;7.406;2022-10-16T13:56:29;100895.09;;;28.22;65.88
44992;BME280;56865;51.618;7.406;2022-10-16T13:58:59;100895.19;;;28.42;64.10
44992;BME280;56865;51.618;7.406;2022-10-16T14:01:30;100894.69;;;28.73;64.14
44992;BME280;56865;51.618;7.406;2022-10-16T14:04:02;100890.50;;;28.48;64.15
44992;BME280;56865;51.618;7.406;2022-10-16T14:06:33;100884.03;;;28.36;67.71